createdAt,value
2019-03-23T00:01:55.594Z,71.97
2019-03-23T00:04:28.001Z,71.85
2019-03-23T00:06:59.508Z,69.53
2019-03-23T00:09:30.834Z,71.05
2019-03-23T00:12:02.436Z,64.43
2019-03-23T00:14:33.372Z,66.22
2019-03-23T00:17:04.595Z,65.47
2019-03-23T00:19:35.803Z,66.47
2019-03-23T00:22:07.926Z,65.97
2019-03-23T00:24:38.964Z,66.57
2019-03-23T00:27:10.273Z,69.95
2019-03-23T00:29:41.566Z,69.27
2019-03-23T00:32:12.563Z,69.77
2019-03-23T00:34:43.590Z,70.00
2019-03-23T00:37:15.192Z,70.03
2019-03-23T00:39:46.372Z,69.37
2019-03-23T00:42:17.534Z,69.80
2019-03-23T00:44:48.700Z,65.47
2019-03-23T00:47:19.671Z,68.40
2019-03-23T00:49:50.695Z,67.90
2019-03-23T00:52:21.974Z,72.77
2019-03-23T00:54:53.016Z,72.27
2019-03-23T00:57:24.052Z,72.27
2019-03-23T00:59:55.334Z,75.10
2019-03-23T01:02:26.028Z,71.93
2019-03-23T01:04:56.735Z,72.00
2019-03-23T01:07:27.828Z,71.93
2019-03-23T01:09:58.983Z,72.20
2019-03-23T01:12:30.451Z,72.17
2019-03-23T01:15:01.301Z,73.57
2019-03-23T01:17:33.955Z,69.23
2019-03-23T01:20:06.887Z,69.25
2019-03-23T01:22:38.987Z,71.30
2019-03-23T01:25:11.575Z,73.63
2019-03-23T01:27:43.232Z,70.17
2019-03-23T01:30:15.616Z,72.58
2019-03-23T01:32:46.654Z,69.62
2019-03-23T01:35:17.837Z,68.83
2019-03-23T01:37:49.124Z,70.90
2019-03-23T01:40:20.227Z,71.50
2019-03-23T01:42:51.289Z,70.87
2019-03-23T01:45:22.555Z,67.78
2019-03-23T01:47:53.531Z,68.40
2019-03-23T01:50:24.651Z,71.73
2019-03-23T01:52:56.036Z,70.63
2019-03-23T01:55:26.949Z,68.07
2019-03-23T01:57:58.329Z,67.60
2019-03-23T02:00:29.276Z,67.25
2019-03-23T02:03:00.565Z,69.80
2019-03-23T02:05:31.658Z,69.82
2019-03-23T02:08:02.336Z,68.97
2019-03-23T02:10:35.238Z,69.03
2019-03-23T02:15:37.044Z,67.22
2019-03-23T02:18:08.167Z,68.57
2019-03-23T02:20:39.028Z,71.03
2019-03-23T02:23:10.421Z,67.73
2019-03-23T02:25:41.685Z,67.10
2019-03-23T02:28:12.410Z,71.07
2019-03-23T02:30:43.301Z,69.77
2019-03-23T02:33:15.078Z,68.43
2019-03-23T02:35:46.590Z,69.12
2019-03-23T02:38:17.440Z,69.20
2019-03-23T02:40:48.487Z,71.20
2019-03-23T02:43:19.335Z,69.63
2019-03-23T02:45:50.344Z,70.17
2019-03-23T02:48:21.502Z,72.37
2019-03-23T02:50:52.817Z,70.53
2019-03-23T02:53:23.976Z,70.57
2019-03-23T02:55:55.049Z,68.97
2019-03-23T02:58:25.884Z,69.03
2019-03-23T03:00:57.121Z,71.43
2019-03-23T03:03:28.616Z,68.97
2019-03-23T03:08:29.290Z,67.03
2019-03-23T03:11:00.254Z,73.17
2019-03-23T03:13:31.165Z,72.17
2019-03-23T03:16:02.009Z,68.20
2019-03-23T03:18:33.419Z,73.17
2019-03-23T03:21:04.691Z,73.90
2019-03-23T03:23:36.370Z,69.60
2019-03-23T03:28:39.344Z,71.10
2019-03-23T03:31:10.465Z,71.42
2019-03-23T03:33:41.491Z,73.77
2019-03-23T03:36:12.744Z,73.80
2019-03-23T03:38:43.386Z,68.80
2019-03-23T03:41:14.395Z,70.67
2019-03-23T03:43:45.166Z,69.50
2019-03-23T03:46:18.286Z,70.53
2019-03-23T03:48:48.341Z,65.85
2019-03-23T03:51:19.288Z,66.05
2019-03-23T03:53:50.279Z,71.75
2019-03-23T03:56:21.367Z,68.78
2019-03-23T03:58:52.799Z,73.50
2019-03-23T04:01:23.469Z,70.07
2019-03-23T04:03:54.918Z,66.17
2019-03-23T04:06:26.024Z,70.72
2019-03-23T04:08:57.785Z,70.50
2019-03-23T04:11:28.956Z,67.53
2019-03-23T04:14:01.140Z,74.17
2019-03-23T04:16:32.011Z,71.40
2019-03-23T04:19:03.044Z,69.65
2019-03-23T04:21:34.349Z,70.37
2019-03-23T04:24:06.807Z,68.07
2019-03-23T04:26:39.354Z,70.30
2019-03-23T04:29:10.213Z,72.15
2019-03-23T04:31:41.287Z,71.17
2019-03-23T04:34:12.260Z,69.23
2019-03-23T04:36:43.688Z,72.03
2019-03-23T04:39:14.671Z,68.67
2019-03-23T04:41:46.112Z,69.75
2019-03-23T04:44:17.070Z,71.93
2019-03-23T04:46:48.545Z,69.97
2019-03-23T04:49:19.729Z,68.87
2019-03-23T04:51:50.688Z,70.78
2019-03-23T04:54:21.578Z,70.40
2019-03-23T04:56:52.803Z,69.67
2019-03-23T04:59:23.538Z,71.25
2019-03-23T05:01:55.891Z,69.17
2019-03-23T05:04:26.966Z,71.33
2019-03-23T05:06:58.104Z,69.90
2019-03-23T05:09:28.885Z,71.37
2019-03-23T05:12:00.232Z,68.53
2019-03-23T05:14:33.764Z,69.45
2019-03-23T05:17:05.500Z,69.87
2019-03-23T05:19:36.313Z,71.67
2019-03-23T05:22:10.231Z,70.83
2019-03-23T05:24:40.429Z,71.17
2019-03-23T05:27:11.613Z,70.50
2019-03-23T05:29:42.523Z,72.07
2019-03-23T05:32:13.709Z,72.00
2019-03-23T05:34:44.803Z,69.83
2019-03-23T05:37:15.906Z,73.30
2019-03-23T05:39:47.224Z,69.92
2019-03-23T05:42:18.276Z,74.13
2019-03-23T05:44:52.172Z,73.03
2019-03-23T05:47:23.035Z,71.92
2019-03-23T05:49:54.107Z,72.83
2019-03-23T05:52:25.233Z,72.23
2019-03-23T05:54:56.060Z,73.90
2019-03-23T05:57:27.144Z,70.50
2019-03-23T05:59:59.551Z,72.17
2019-03-23T06:02:33.502Z,72.70
2019-03-23T06:05:05.317Z,72.27
2019-03-23T06:07:36.928Z,74.70
2019-03-23T06:10:07.922Z,74.77
2019-03-23T06:12:40.056Z,74.97
2019-03-23T06:17:40.863Z,68.55
2019-03-23T06:20:12.486Z,73.83
2019-03-23T06:22:45.253Z,75.40
2019-03-23T06:25:16.351Z,72.65
2019-03-23T06:27:47.723Z,73.40
2019-03-23T06:30:18.995Z,73.67
2019-03-23T06:32:50.076Z,73.27
2019-03-23T06:35:20.920Z,70.60
2019-03-23T06:37:53.454Z,71.02
2019-03-23T06:40:24.581Z,75.03
2019-03-23T06:42:59.645Z,71.23
2019-03-23T06:45:28.041Z,73.55
2019-03-23T06:47:59.425Z,73.57
2019-03-23T06:50:31.367Z,70.22
2019-03-23T06:53:02.458Z,72.85
2019-03-23T06:55:34.950Z,71.15
2019-03-23T06:58:07.073Z,72.42
2019-03-23T07:00:37.683Z,73.05
2019-03-23T07:03:08.472Z,71.42
2019-03-23T07:05:38.929Z,71.12
2019-03-23T07:08:10.592Z,75.13
2019-03-23T07:10:40.915Z,69.47
2019-03-23T07:13:10.345Z,70.92
2019-03-23T07:15:39.762Z,71.67
2019-03-23T07:18:09.122Z,70.78
2019-03-23T07:20:38.561Z,71.70
2019-03-23T07:23:08.372Z,67.80
2019-03-23T07:25:37.928Z,65.20
2019-03-23T07:28:08.062Z,68.17
2019-03-23T07:30:38.800Z,69.17
2019-03-23T07:33:11.124Z,68.22
2019-03-23T07:35:40.658Z,68.17
2019-03-23T07:38:12.745Z,69.30
2019-03-23T07:40:42.145Z,66.20
2019-03-23T07:43:11.512Z,67.70
2019-03-23T07:45:40.910Z,65.52
2019-03-23T07:48:10.333Z,66.72
2019-03-23T07:50:39.715Z,64.95
2019-03-23T07:53:09.161Z,67.60
2019-03-23T07:55:38.568Z,65.75
2019-03-23T07:58:08.034Z,63.25
2019-03-23T08:00:37.447Z,64.27
2019-03-23T08:03:06.844Z,61.75
2019-03-23T08:05:36.276Z,59.53
2019-03-23T08:08:08.381Z,61.28
2019-03-23T08:10:39.445Z,58.83
2019-03-23T08:13:08.889Z,57.10
2019-03-23T08:15:38.324Z,57.40
2019-03-23T08:18:07.687Z,56.63
2019-03-23T08:20:37.056Z,57.90
2019-03-23T08:23:06.425Z,56.15
2019-03-23T08:25:35.834Z,56.45
2019-03-23T08:28:05.520Z,54.58
2019-03-23T08:30:34.954Z,55.43
2019-03-23T08:33:04.379Z,55.73
2019-03-23T08:35:35.315Z,56.35
2019-03-23T08:38:05.648Z,56.53
2019-03-23T08:40:35.937Z,56.28
2019-03-23T08:43:05.481Z,58.60
2019-03-23T08:45:34.921Z,54.88
2019-03-23T08:48:04.358Z,55.67
2019-03-23T08:50:33.752Z,57.60
2019-03-23T08:53:03.198Z,57.25
2019-03-23T08:55:32.555Z,59.75
2019-03-23T08:58:01.930Z,56.92
2019-03-23T09:00:31.359Z,55.85
2019-03-23T09:03:00.721Z,54.50
2019-03-23T09:05:31.214Z,56.40
2019-03-23T09:08:00.606Z,56.98
2019-03-23T09:10:29.983Z,54.60
2019-03-23T09:12:59.338Z,52.67
2019-03-23T09:15:28.710Z,53.98
2019-03-23T09:17:59.786Z,54.95
2019-03-23T09:20:29.606Z,54.60
2019-03-23T09:23:00.279Z,54.17
2019-03-23T09:25:29.658Z,52.27
2019-03-23T09:27:59.028Z,52.05
2019-03-23T09:30:28.447Z,53.92
2019-03-23T09:32:58.018Z,55.43
2019-03-23T09:35:27.437Z,51.45
2019-03-23T09:37:56.859Z,51.25
2019-03-23T09:40:26.312Z,50.92
2019-03-23T09:42:55.738Z,54.23
2019-03-23T09:45:25.116Z,49.25
2019-03-23T09:47:54.492Z,50.65
2019-03-23T09:50:24.013Z,52.07
2019-03-23T09:52:53.465Z,50.83
2019-03-23T09:55:23.980Z,46.98
2019-03-23T09:57:53.353Z,50.85
2019-03-23T10:00:22.757Z,48.38
2019-03-23T10:02:52.343Z,49.05
2019-03-23T10:05:24.679Z,48.33
2019-03-23T10:07:54.141Z,51.10
2019-03-23T10:10:23.485Z,47.87
2019-03-23T10:12:52.843Z,48.20
2019-03-23T10:15:22.235Z,49.83
2019-03-23T10:17:51.719Z,48.70
2019-03-23T10:20:22.217Z,48.87
2019-03-23T10:22:51.660Z,48.63
2019-03-23T10:25:22.140Z,47.27
2019-03-23T10:27:51.587Z,44.40
2019-03-23T10:30:20.939Z,43.98
2019-03-23T10:32:50.316Z,46.15
2019-03-23T10:35:19.736Z,48.42
2019-03-23T10:37:49.107Z,44.40
2019-03-23T10:40:18.556Z,46.63
2019-03-23T10:42:48.009Z,46.40
2019-03-23T10:45:17.561Z,48.77
2019-03-23T10:47:46.994Z,44.95
2019-03-23T10:50:16.651Z,44.67
2019-03-23T10:52:47.244Z,46.45
2019-03-23T10:55:16.696Z,46.70
2019-03-23T10:57:46.094Z,45.58
2019-03-23T11:00:15.769Z,49.20
2019-03-23T11:02:45.195Z,44.70
2019-03-23T11:05:14.693Z,46.13
2019-03-23T11:07:44.150Z,47.15
2019-03-23T11:10:14.142Z,44.80
2019-03-23T11:12:43.541Z,45.43
2019-03-23T11:15:13.252Z,45.67
2019-03-23T11:17:42.598Z,46.13
2019-03-23T11:20:13.217Z,46.30
2019-03-23T11:22:42.654Z,44.10
2019-03-23T11:25:12.547Z,46.18
2019-03-23T11:27:41.974Z,45.33
2019-03-23T11:30:14.726Z,46.13
2019-03-23T11:32:44.297Z,44.63
2019-03-23T11:35:13.979Z,42.50
2019-03-23T11:37:43.694Z,42.85
2019-03-23T11:40:14.385Z,45.17
2019-03-23T11:42:49.683Z,43.68
2019-03-23T11:45:14.900Z,43.13
2019-03-23T11:47:44.312Z,43.95
2019-03-23T11:50:13.844Z,45.58
2019-03-23T11:52:44.196Z,42.50
2019-03-23T11:55:13.620Z,43.08
2019-03-23T11:57:43.969Z,40.88
2019-03-23T12:00:15.540Z,41.90
2019-03-23T12:02:44.947Z,42.85
2019-03-23T12:05:17.172Z,42.53
2019-03-23T12:07:46.538Z,41.58
2019-03-23T12:10:16.038Z,42.67
2019-03-23T12:12:45.405Z,42.08
2019-03-23T12:15:15.002Z,41.17
2019-03-23T12:17:44.474Z,43.05
2019-03-23T12:20:14.095Z,42.88
2019-03-23T12:22:43.658Z,43.55
2019-03-23T12:25:13.275Z,39.88
2019-03-23T12:27:42.745Z,41.48
2019-03-23T12:30:17.287Z,38.53
2019-03-23T12:32:46.721Z,41.55
2019-03-23T12:35:16.151Z,43.05
2019-03-23T12:37:45.518Z,41.92
2019-03-23T12:40:15.123Z,40.75
2019-03-23T12:42:44.491Z,44.95
2019-03-23T12:45:14.012Z,43.40
2019-03-23T12:47:43.523Z,42.75
2019-03-23T12:50:13.621Z,40.45
2019-03-23T12:52:44.044Z,40.47
2019-03-23T12:55:13.534Z,41.63
2019-03-23T12:57:42.887Z,40.75
2019-03-23T13:00:14.904Z,40.98
2019-03-23T13:02:44.467Z,41.75
2019-03-23T13:05:14.165Z,40.00
2019-03-23T13:07:43.680Z,42.38
2019-03-23T13:10:14.108Z,41.42
2019-03-23T13:12:43.747Z,40.05
2019-03-23T13:15:15.421Z,40.63
2019-03-23T13:17:46.681Z,39.18
2019-03-23T13:20:16.397Z,39.83
2019-03-23T13:22:45.854Z,36.50
2019-03-23T13:25:15.286Z,37.83
2019-03-23T13:27:44.655Z,33.55
2019-03-23T13:30:16.090Z,29.75
2019-03-23T13:32:45.568Z,28.55
2019-03-23T13:35:15.518Z,27.67
2019-03-23T13:37:45.811Z,25.25
2019-03-23T13:40:20.806Z,22.48
2019-03-23T13:42:50.454Z,20.35
2019-03-23T13:45:20.128Z,18.90
2019-03-23T13:47:49.636Z,15.83
2019-03-23T13:50:28.252Z,13.63
2019-03-23T13:52:58.101Z,10.70
2019-03-23T13:55:30.063Z,12.23
2019-03-23T13:58:11.390Z,13.83
2019-03-23T14:00:41.539Z,16.63
2019-03-23T14:03:11.233Z,17.67
2019-03-23T14:05:40.796Z,16.02
2019-03-23T14:08:10.627Z,15.70
2019-03-23T14:10:40.508Z,16.57
2019-03-23T14:13:10.340Z,16.12
2019-03-23T14:15:40.239Z,17.67
2019-03-23T14:18:10.183Z,17.12
2019-03-23T14:20:40.009Z,18.73
2019-03-23T14:23:09.903Z,20.65
2019-03-23T14:25:39.807Z,20.20
2019-03-23T14:28:09.589Z,21.17
2019-03-23T14:30:39.260Z,21.20
2019-03-23T14:33:09.479Z,22.65
2019-03-23T14:35:39.445Z,23.25
2019-03-23T14:38:11.317Z,22.27
2019-03-23T14:40:41.416Z,23.05
2019-03-23T14:43:12.725Z,21.80
2019-03-23T14:45:42.258Z,20.25
2019-03-23T14:48:13.328Z,21.77
2019-03-23T14:50:43.111Z,23.20
2019-03-23T14:53:13.909Z,20.80
2019-03-23T14:55:47.221Z,20.05
2019-03-23T14:58:19.279Z,18.30
2019-03-23T15:00:58.351Z,17.12
2019-03-23T15:03:31.053Z,16.52
2019-03-23T15:06:00.648Z,17.40
2019-03-23T15:08:31.906Z,15.83
2019-03-23T15:11:03.199Z,13.00
2019-03-23T15:13:32.931Z,13.55
2019-03-23T15:16:02.436Z,11.88
2019-03-23T15:18:31.829Z,12.35
2019-03-23T15:21:01.179Z,10.53
2019-03-23T15:23:30.676Z,9.98
2019-03-23T15:26:00.050Z,9.65
2019-03-23T15:28:29.594Z,8.60
2019-03-23T15:30:58.960Z,7.65
2019-03-23T15:33:28.315Z,7.55
2019-03-23T15:36:00.504Z,7.12
2019-03-23T15:38:29.892Z,7.22
2019-03-23T15:40:59.341Z,8.08
2019-03-23T15:43:32.029Z,8.73
2019-03-23T15:46:01.841Z,8.38
2019-03-23T15:48:31.215Z,7.47
2019-03-23T15:51:00.586Z,7.47
2019-03-23T15:53:29.937Z,5.55
2019-03-23T15:55:59.288Z,4.03
2019-03-23T15:58:28.656Z,5.22
2019-03-23T16:00:58.004Z,5.50
2019-03-23T16:03:30.117Z,4.85
2019-03-23T16:05:59.476Z,3.80
2019-03-23T16:08:28.911Z,3.77
2019-03-23T16:10:58.341Z,4.47
2019-03-23T16:13:27.837Z,4.53
2019-03-23T16:15:57.226Z,4.45
2019-03-23T16:18:26.726Z,6.47
2019-03-23T16:20:56.104Z,4.30
2019-03-23T16:23:25.559Z,6.58
2019-03-23T16:25:54.928Z,5.03
2019-03-23T16:28:24.532Z,4.40
2019-03-23T16:30:53.973Z,3.65
2019-03-23T16:33:23.359Z,4.13
2019-03-23T16:35:53.061Z,4.22
2019-03-23T16:38:22.468Z,4.03
2019-03-23T16:40:51.887Z,3.92
2019-03-23T16:43:21.396Z,3.95
2019-03-23T16:45:50.904Z,4.22
2019-03-23T16:48:20.320Z,4.95
2019-03-23T16:50:49.738Z,4.87
2019-03-23T16:53:19.237Z,4.67
2019-03-23T16:55:48.608Z,3.75
2019-03-23T16:58:17.982Z,5.12
2019-03-23T17:00:47.422Z,4.15
2019-03-23T17:03:18.259Z,9.55
2019-03-23T17:05:47.783Z,6.45
2019-03-23T17:08:17.380Z,5.90
2019-03-23T17:10:46.800Z,4.35
2019-03-23T17:13:16.252Z,4.53
2019-03-23T17:15:46.710Z,8.23
2019-03-23T17:18:16.226Z,6.78
2019-03-23T17:20:45.675Z,6.37
2019-03-23T17:23:15.031Z,4.78
2019-03-23T17:25:44.394Z,4.97
2019-03-23T17:28:13.738Z,3.97
2019-03-23T17:30:43.086Z,3.92
2019-03-23T17:33:12.495Z,3.75
2019-03-23T17:35:42.395Z,3.22
2019-03-23T17:38:15.252Z,3.22
2019-03-23T17:40:44.693Z,3.60
2019-03-23T17:43:14.348Z,4.33
2019-03-23T17:45:44.806Z,3.77
2019-03-23T17:48:14.151Z,3.67
2019-03-23T17:50:43.509Z,3.42
2019-03-23T17:53:13.017Z,3.58
2019-03-23T17:55:49.397Z,4.00
2019-03-23T17:58:17.190Z,3.33
2019-03-23T18:00:49.350Z,3.65
2019-03-23T18:03:18.805Z,3.77
2019-03-23T18:05:48.360Z,3.45
2019-03-23T18:08:17.801Z,3.92
2019-03-23T18:10:47.171Z,3.72
2019-03-23T18:13:19.003Z,3.83
2019-03-23T18:15:49.558Z,3.47
2019-03-23T18:18:20.183Z,4.12
2019-03-23T18:20:51.183Z,4.03
2019-03-23T18:23:20.611Z,3.47
2019-03-23T18:25:50.051Z,4.15
2019-03-23T18:28:19.643Z,3.60
2019-03-23T18:30:49.127Z,4.67
2019-03-23T18:33:18.559Z,3.92
2019-03-23T18:35:48.312Z,5.47
2019-03-23T18:38:17.811Z,4.87
2019-03-23T18:40:47.248Z,4.50
2019-03-23T18:43:26.679Z,5.23
2019-03-23T18:45:48.250Z,4.33
2019-03-23T18:48:17.610Z,5.10
2019-03-23T18:50:46.979Z,7.62
2019-03-23T18:53:19.285Z,7.47
2019-03-23T18:55:48.881Z,5.87
2019-03-23T18:58:18.304Z,5.53
2019-03-23T19:00:47.755Z,5.17
2019-03-23T19:03:17.221Z,5.30
2019-03-23T19:05:46.645Z,4.78
2019-03-23T19:08:16.005Z,4.97
2019-03-23T19:10:45.386Z,5.00
2019-03-23T19:13:14.750Z,5.17
2019-03-23T19:15:44.178Z,5.75
2019-03-23T19:18:13.630Z,4.85
2019-03-23T19:20:42.981Z,5.72
2019-03-23T19:23:12.400Z,4.93
2019-03-23T19:25:41.770Z,5.35
2019-03-23T19:28:12.266Z,4.90
2019-03-23T19:30:41.691Z,5.50
2019-03-23T19:33:11.073Z,5.25
2019-03-23T19:35:40.426Z,3.95
2019-03-23T19:38:09.936Z,4.26
2019-03-23T19:40:39.435Z,3.77
2019-03-23T19:43:08.914Z,3.42
2019-03-23T19:45:38.797Z,3.62
2019-03-23T19:48:09.260Z,4.33
2019-03-23T19:50:38.692Z,4.05
2019-03-23T19:53:08.061Z,4.03
2019-03-23T19:55:37.537Z,3.77
2019-03-23T19:58:07.033Z,4.22
2019-03-23T20:00:37.942Z,3.80
2019-03-23T20:03:07.305Z,4.20
2019-03-23T20:05:36.714Z,4.17
2019-03-23T20:08:06.413Z,4.33
2019-03-23T20:10:35.926Z,3.85
2019-03-23T20:13:05.342Z,3.80
2019-03-23T20:15:36.951Z,4.58
2019-03-23T20:18:07.385Z,5.35
2019-03-23T20:20:36.894Z,5.58
2019-03-23T20:23:06.445Z,4.67
2019-03-23T20:25:35.965Z,5.05
2019-03-23T20:28:05.591Z,5.17
2019-03-23T20:30:36.969Z,5.37
2019-03-23T20:33:06.176Z,4.40
2019-03-23T20:35:35.740Z,4.70
2019-03-23T20:38:06.017Z,4.72
2019-03-23T20:40:38.434Z,4.20
2019-03-23T20:43:07.922Z,5.15
2019-03-23T20:45:37.493Z,4.97
2019-03-23T20:48:07.484Z,5.25
2019-03-23T20:50:37.967Z,5.80
2019-03-23T20:53:07.741Z,4.25
2019-03-23T20:55:37.254Z,5.17
2019-03-23T20:58:06.683Z,5.75
2019-03-23T21:00:36.327Z,5.25
2019-03-23T21:03:07.490Z,4.67
2019-03-23T21:05:38.216Z,3.70
2019-03-23T21:08:07.901Z,5.08
2019-03-23T21:10:39.013Z,4.85
2019-03-23T21:13:08.505Z,5.17
2019-03-23T21:15:38.080Z,4.62
2019-03-23T21:18:07.585Z,4.30
2019-03-23T21:20:37.182Z,5.30
2019-03-23T21:23:07.530Z,5.50
2019-03-23T21:25:37.116Z,4.97
2019-03-23T21:28:06.603Z,5.28
2019-03-23T21:30:36.057Z,5.17
2019-03-23T21:33:05.815Z,5.03
2019-03-23T21:35:36.836Z,4.70
2019-03-23T21:38:06.203Z,4.93
2019-03-23T21:40:35.694Z,5.05
2019-03-23T21:43:05.893Z,4.67
2019-03-23T21:45:35.323Z,4.55
2019-03-23T21:48:05.635Z,5.95
2019-03-23T21:50:35.005Z,5.03
2019-03-23T21:53:04.427Z,6.62
2019-03-23T21:55:33.784Z,6.25
2019-03-23T21:58:03.290Z,4.92
2019-03-23T22:00:34.377Z,6.33
2019-03-23T22:03:04.089Z,5.53
2019-03-23T22:05:33.502Z,4.37
2019-03-23T22:08:02.871Z,5.40
2019-03-23T22:10:32.324Z,6.03
2019-03-23T22:13:04.540Z,5.67
2019-03-23T22:15:34.426Z,6.03
2019-03-23T22:18:04.296Z,5.58
2019-03-23T22:20:33.643Z,5.75
2019-03-23T22:23:03.087Z,5.97
2019-03-23T22:25:32.576Z,5.47
2019-03-23T22:28:02.067Z,6.00
2019-03-23T22:30:31.515Z,5.62
2019-03-23T22:33:00.946Z,6.87
2019-03-23T22:35:30.395Z,5.15
2019-03-23T22:37:59.743Z,4.80
2019-03-23T22:40:29.172Z,5.70
2019-03-23T22:42:58.530Z,5.58
2019-03-23T22:45:27.880Z,6.65
2019-03-23T22:47:57.283Z,5.65
2019-03-23T22:50:28.977Z,5.55
2019-03-23T22:52:58.321Z,6.08
2019-03-23T22:55:27.702Z,5.53
2019-03-23T22:57:57.138Z,5.37
2019-03-23T23:00:28.405Z,5.35
2019-03-23T23:02:59.377Z,6.25
2019-03-23T23:05:28.798Z,5.60
2019-03-23T23:07:58.141Z,6.25
2019-03-23T23:10:27.621Z,7.17
2019-03-23T23:12:57.008Z,7.67
2019-03-23T23:15:26.443Z,7.50
2019-03-23T23:17:55.785Z,7.53
2019-03-23T23:20:25.241Z,6.47
2019-03-23T23:22:54.585Z,6.67
2019-03-23T23:25:24.014Z,7.13
2019-03-23T23:27:53.428Z,5.70
2019-03-23T23:30:22.850Z,5.30
2019-03-23T23:32:52.256Z,7.40
2019-03-23T23:35:21.799Z,7.83
2019-03-23T23:37:51.167Z,8.80
2019-03-23T23:40:20.508Z,8.80
2019-03-23T23:42:49.920Z,7.53
2019-03-23T23:45:19.376Z,6.90
2019-03-23T23:47:48.727Z,6.83
2019-03-23T23:50:18.230Z,7.12
2019-03-23T23:52:47.590Z,5.87
2019-03-23T23:55:16.936Z,6.25
2019-03-23T23:57:46.319Z,6.10
